createdAt,value
2022-12-08T00:01:26.967Z,4.53
2022-12-08T00:03:54.083Z,4.53
2022-12-08T00:06:42.346Z,4.57
2022-12-08T00:09:38.344Z,4.56
2022-12-08T00:12:08.650Z,4.61
2022-12-08T00:14:46.157Z,4.53
2022-12-08T00:17:15.238Z,4.53
2022-12-08T00:19:42.913Z,4.56
2022-12-08T00:22:11.173Z,4.53
2022-12-08T00:24:40.046Z,4.64
2022-12-08T00:27:11.290Z,4.70
2022-12-08T00:29:38.239Z,4.63
2022-12-08T00:32:05.881Z,4.70
2022-12-08T00:34:33.345Z,4.71
2022-12-08T00:37:00.314Z,4.71
2022-12-08T00:39:27.099Z,4.70
2022-12-08T00:42:12.329Z,4.67
2022-12-08T00:44:40.631Z,4.78
2022-12-08T00:47:07.265Z,4.73
2022-12-08T00:49:34.044Z,4.78
2022-12-08T00:52:01.357Z,4.74
2022-12-08T00:54:28.164Z,4.76
2022-12-08T00:56:54.946Z,4.68
2022-12-08T01:01:41.631Z,4.67
2022-12-08T01:04:12.988Z,4.66
2022-12-08T01:06:39.809Z,4.76
2022-12-08T01:09:07.694Z,4.70
2022-12-08T01:11:35.336Z,4.76
2022-12-08T01:14:02.185Z,4.71
2022-12-08T01:16:32.690Z,4.68
2022-12-08T01:19:00.613Z,4.60
2022-12-08T01:21:27.800Z,4.76
2022-12-08T01:23:55.967Z,4.78
2022-12-08T01:26:22.602Z,4.73
2022-12-08T01:28:49.210Z,4.80
2022-12-08T01:31:18.915Z,4.83
2022-12-08T01:33:45.997Z,4.74
2022-12-08T01:36:26.945Z,4.74
2022-12-08T01:38:54.767Z,4.76
2022-12-08T01:41:25.227Z,4.87
2022-12-08T01:44:04.130Z,4.80
2022-12-08T01:46:33.277Z,4.80
2022-12-08T01:49:26.580Z,4.92
2022-12-08T01:52:00.317Z,4.88
2022-12-08T01:54:32.183Z,4.81
2022-12-08T01:57:16.717Z,4.78
2022-12-08T01:59:48.853Z,4.83
2022-12-08T02:02:15.757Z,4.76
2022-12-08T02:04:45.734Z,4.78
2022-12-08T02:07:14.619Z,4.64
2022-12-08T02:09:42.797Z,4.76
2022-12-08T02:12:10.992Z,4.70
2022-12-08T02:14:38.021Z,4.76
2022-12-08T02:17:43.166Z,4.77
2022-12-08T02:20:42.435Z,4.67
2022-12-08T02:23:30.327Z,4.77
2022-12-08T02:26:14.388Z,4.68
2022-12-08T02:29:00.015Z,4.70
2022-12-08T02:31:56.261Z,4.73
2022-12-08T02:34:44.119Z,4.74
2022-12-08T02:37:37.616Z,4.73
2022-12-08T02:40:33.283Z,4.74
2022-12-08T02:43:23.691Z,4.74
2022-12-08T02:46:03.570Z,4.74
2022-12-08T02:48:32.834Z,4.74
2022-12-08T02:51:00.185Z,4.66
2022-12-08T02:53:33.304Z,4.74
2022-12-08T02:56:37.480Z,4.76
2022-12-08T02:59:24.470Z,4.76
2022-12-08T03:02:06.137Z,4.80
2022-12-08T03:04:40.260Z,4.81
2022-12-08T03:07:37.325Z,4.76
2022-12-08T03:10:19.614Z,4.83
2022-12-08T03:12:51.023Z,4.78
2022-12-08T03:15:21.530Z,4.78
2022-12-08T03:17:54.326Z,4.83
2022-12-08T03:20:24.220Z,4.85
2022-12-08T03:22:54.043Z,4.77
2022-12-08T03:25:24.666Z,4.84
2022-12-08T03:27:52.425Z,4.81
2022-12-08T03:30:19.403Z,4.80
2022-12-08T03:32:57.446Z,4.80
2022-12-08T03:35:30.234Z,4.85
2022-12-08T03:38:11.784Z,4.74
2022-12-08T03:40:39.283Z,4.80
2022-12-08T03:43:06.125Z,4.77
2022-12-08T03:45:33.608Z,4.78
2022-12-08T03:48:00.496Z,4.74
2022-12-08T03:50:27.521Z,4.76
2022-12-08T03:52:54.153Z,4.71
2022-12-08T03:55:21.654Z,4.73
2022-12-08T03:57:48.581Z,4.67
2022-12-08T04:00:17.096Z,4.71
2022-12-08T04:02:43.855Z,4.71
2022-12-08T04:05:10.868Z,4.71
2022-12-08T04:07:37.690Z,4.70
2022-12-08T04:10:05.736Z,4.73
2022-12-08T04:12:32.773Z,4.77
2022-12-08T04:14:59.497Z,4.68
2022-12-08T04:17:26.160Z,4.71
2022-12-08T04:19:52.777Z,4.70
2022-12-08T04:22:19.480Z,4.73
2022-12-08T04:24:46.174Z,4.71
2022-12-08T04:27:12.720Z,4.70
2022-12-08T04:29:39.314Z,4.70
2022-12-08T04:32:06.009Z,4.71
2022-12-08T04:34:32.643Z,4.66
2022-12-08T04:36:59.205Z,4.64
2022-12-08T04:39:25.942Z,4.61
2022-12-08T04:41:52.635Z,4.61
2022-12-08T04:44:19.374Z,4.46
2022-12-08T04:46:46.387Z,4.37
2022-12-08T04:49:13.052Z,4.43
2022-12-08T04:51:39.913Z,4.36
2022-12-08T04:54:06.738Z,4.39
2022-12-08T04:56:33.312Z,4.29
2022-12-08T04:58:59.926Z,4.35
2022-12-08T05:01:26.767Z,4.35
2022-12-08T05:03:53.493Z,4.40
2022-12-08T05:06:20.175Z,4.33
2022-12-08T05:08:46.820Z,4.33
2022-12-08T05:11:13.716Z,4.40
2022-12-08T05:13:40.498Z,4.39
2022-12-08T05:16:10.733Z,4.43
2022-12-08T05:18:37.951Z,4.46
2022-12-08T05:21:05.679Z,4.45
2022-12-08T05:23:32.766Z,4.43
2022-12-08T05:26:00.394Z,4.45
2022-12-08T05:28:43.814Z,4.42
2022-12-08T05:31:12.609Z,4.49
2022-12-08T05:33:39.753Z,4.43
2022-12-08T05:36:07.002Z,4.42
2022-12-08T05:38:34.032Z,4.54
2022-12-08T05:41:00.750Z,4.47
2022-12-08T05:43:27.604Z,4.49
2022-12-08T05:45:54.314Z,4.54
2022-12-08T05:48:20.997Z,4.58
2022-12-08T05:50:48.948Z,4.63
2022-12-08T05:53:16.718Z,4.66
2022-12-08T05:55:43.508Z,4.64
2022-12-08T05:58:19.248Z,4.58
2022-12-08T06:00:46.854Z,4.63
2022-12-08T06:03:14.607Z,4.64
2022-12-08T06:05:42.522Z,4.67
2022-12-08T06:08:09.539Z,4.61
2022-12-08T06:10:38.867Z,4.63
2022-12-08T06:13:05.593Z,4.60
2022-12-08T06:15:35.135Z,4.57
2022-12-08T06:18:01.946Z,4.52
2022-12-08T06:20:28.922Z,4.57
2022-12-08T06:22:56.734Z,4.53
2022-12-08T06:25:24.200Z,4.57
2022-12-08T06:27:51.398Z,4.53
2022-12-08T06:30:19.477Z,4.52
2022-12-08T06:32:46.322Z,4.54
2022-12-08T06:35:13.003Z,4.46
2022-12-08T06:37:42.717Z,4.45
2022-12-08T06:40:09.783Z,4.33
2022-12-08T06:42:45.186Z,4.30
2022-12-08T06:45:17.513Z,4.32
2022-12-08T06:47:45.151Z,4.28
2022-12-08T06:50:13.081Z,4.32
2022-12-08T06:52:51.595Z,4.29
2022-12-08T06:55:50.684Z,4.20
2022-12-08T06:58:09.773Z,4.23
2022-12-08T07:00:36.442Z,4.29
2022-12-08T07:03:03.496Z,4.29
2022-12-08T07:05:30.484Z,4.28
2022-12-08T07:07:57.672Z,4.32
2022-12-08T07:10:24.368Z,4.30
2022-12-08T07:12:50.922Z,4.26
2022-12-08T07:15:17.868Z,4.28
2022-12-08T07:17:44.564Z,4.25
2022-12-08T07:20:11.549Z,4.20
2022-12-08T07:22:38.157Z,4.23
2022-12-08T07:25:05.631Z,4.20
2022-12-08T07:27:32.267Z,4.23
2022-12-08T07:33:50.512Z,4.28
2022-12-08T07:36:17.218Z,4.22
2022-12-08T07:38:43.976Z,4.22
2022-12-08T07:41:19.108Z,4.23
2022-12-08T07:43:45.793Z,4.16
2022-12-08T07:46:14.538Z,4.17
2022-12-08T07:48:42.083Z,4.13
2022-12-08T07:51:12.691Z,4.12
2022-12-08T07:53:47.280Z,4.13
2022-12-08T07:56:18.899Z,4.19
2022-12-08T07:58:46.901Z,4.10
2022-12-08T08:01:28.754Z,4.08
2022-12-08T08:03:57.548Z,4.09
2022-12-08T08:06:24.853Z,3.99
2022-12-08T08:08:51.460Z,3.94
2022-12-08T08:11:21.396Z,3.85
2022-12-08T08:13:49.826Z,3.73
2022-12-08T08:16:16.882Z,3.79
2022-12-08T08:18:43.836Z,3.77
2022-12-08T08:23:57.125Z,3.84
2022-12-08T08:26:23.860Z,3.79
2022-12-08T08:28:50.464Z,3.68
2022-12-08T08:31:17.163Z,3.79
2022-12-08T08:33:43.894Z,3.87
2022-12-08T08:36:11.636Z,3.82
2022-12-08T08:38:42.972Z,3.89
2022-12-08T08:41:12.906Z,3.85
2022-12-08T08:43:39.744Z,3.85
2022-12-08T08:46:07.438Z,3.94
2022-12-08T08:48:34.346Z,3.88
2022-12-08T08:51:08.947Z,3.98
2022-12-08T08:53:36.021Z,3.99
2022-12-08T08:56:05.206Z,4.02
2022-12-08T08:58:31.814Z,4.08
2022-12-08T09:00:58.471Z,4.08
2022-12-08T09:03:25.213Z,4.09
2022-12-08T09:05:52.727Z,4.12
2022-12-08T09:08:19.660Z,4.02
2022-12-08T09:10:46.426Z,4.12
2022-12-08T09:13:13.299Z,4.20
2022-12-08T09:15:41.650Z,4.15
2022-12-08T09:18:08.362Z,4.13
2022-12-08T09:20:35.948Z,4.17
2022-12-08T09:23:02.713Z,4.16
2022-12-08T09:25:29.555Z,4.16
2022-12-08T09:27:56.199Z,4.17
2022-12-08T09:30:23.120Z,4.23
2022-12-08T09:32:52.944Z,4.32
2022-12-08T09:35:19.717Z,4.28
2022-12-08T09:37:46.407Z,4.23
2022-12-08T09:40:19.627Z,4.16
2022-12-08T09:42:58.093Z,4.20
2022-12-08T09:45:28.998Z,4.25
2022-12-08T09:48:19.342Z,4.35
2022-12-08T09:50:52.718Z,4.25
2022-12-08T09:53:35.274Z,4.32
2022-12-08T09:56:21.154Z,4.29
2022-12-08T09:58:58.203Z,4.25
2022-12-08T10:01:29.920Z,4.28
2022-12-08T10:03:56.972Z,4.39
2022-12-08T10:06:46.679Z,4.37
2022-12-08T10:09:39.294Z,4.46
2022-12-08T10:12:17.568Z,4.33
2022-12-08T10:14:49.275Z,4.35
2022-12-08T10:17:22.138Z,4.39
2022-12-08T10:19:51.658Z,4.42
2022-12-08T10:22:24.147Z,4.39
2022-12-08T10:25:20.982Z,4.25
2022-12-08T10:27:53.503Z,4.20
2022-12-08T10:30:22.205Z,4.19
2022-12-08T10:32:51.173Z,4.15
2022-12-08T10:35:19.987Z,4.15
2022-12-08T10:37:58.361Z,4.13
2022-12-08T10:40:28.704Z,4.12
2022-12-08T10:42:58.603Z,4.15
2022-12-08T10:45:27.046Z,4.09
2022-12-08T10:48:09.996Z,4.16
2022-12-08T10:50:45.676Z,4.22
2022-12-08T10:53:30.516Z,4.15
2022-12-08T10:56:03.145Z,4.20
2022-12-08T10:58:34.162Z,4.17
2022-12-08T11:01:06.312Z,4.16
2022-12-08T11:03:44.890Z,4.19
2022-12-08T11:06:28.696Z,4.37
2022-12-08T11:09:00.946Z,4.32
2022-12-08T11:11:45.139Z,4.33
2022-12-08T11:14:31.824Z,4.26
2022-12-08T11:17:12.026Z,4.28
2022-12-08T11:19:40.795Z,4.29
2022-12-08T11:22:32.588Z,4.37
2022-12-08T11:25:16.737Z,4.32
2022-12-08T11:27:46.989Z,4.39
2022-12-08T11:30:21.329Z,4.42
2022-12-08T11:32:51.316Z,4.45
2022-12-08T11:35:26.982Z,4.37
2022-12-08T11:38:13.434Z,4.35
2022-12-08T11:40:44.633Z,4.32
2022-12-08T11:43:25.688Z,4.37
2022-12-08T11:46:16.703Z,4.40
2022-12-08T11:49:06.673Z,4.46
2022-12-08T11:51:38.780Z,4.58
2022-12-08T11:54:24.467Z,4.56
2022-12-08T11:56:58.844Z,4.73
2022-12-08T11:59:49.856Z,4.63
2022-12-08T12:02:27.419Z,4.61
2022-12-08T12:05:08.151Z,4.54
2022-12-08T12:08:03.172Z,4.64
2022-12-08T12:10:48.232Z,4.66
2022-12-08T12:13:15.111Z,4.77
2022-12-08T12:16:40.734Z,4.66
2022-12-08T12:19:15.673Z,4.61
2022-12-08T12:21:46.740Z,4.70
2022-12-08T12:24:39.881Z,4.67
2022-12-08T12:27:15.574Z,4.81
2022-12-08T12:29:52.232Z,4.74
2022-12-08T12:36:18.260Z,4.88
2022-12-08T12:39:09.485Z,4.95
2022-12-08T12:41:42.016Z,4.98
2022-12-08T12:44:15.564Z,4.91
2022-12-08T12:46:51.533Z,4.92
2022-12-08T12:49:39.946Z,4.99
2022-12-08T12:52:19.036Z,5.19
2022-12-08T12:55:11.525Z,5.08
2022-12-08T12:57:50.342Z,5.12
2022-12-08T13:00:22.450Z,5.09
2022-12-08T13:02:50.134Z,5.25
2022-12-08T13:05:25.089Z,5.31
2022-12-08T13:07:54.840Z,5.25
2022-12-08T13:10:50.101Z,5.25
2022-12-08T13:13:19.995Z,5.28
2022-12-08T13:16:18.759Z,5.38
2022-12-08T16:32:04.417Z,4.50
2022-12-08T16:34:40.097Z,4.47
2022-12-08T16:37:08.342Z,4.52
2022-12-08T16:39:35.088Z,4.58
2022-12-08T16:42:20.612Z,4.53
2022-12-08T16:44:47.220Z,4.50
2022-12-08T16:47:21.435Z,4.45
2022-12-08T16:49:48.228Z,4.43
2022-12-08T16:52:15.605Z,4.49
2022-12-08T16:54:51.540Z,4.47
2022-12-08T16:57:20.087Z,4.50
2022-12-08T16:59:47.078Z,4.46
2022-12-08T17:02:16.760Z,4.49
2022-12-08T17:04:43.733Z,4.49
2022-12-08T17:13:08.828Z,4.50
2022-12-08T17:15:38.451Z,4.50
2022-12-08T17:18:05.258Z,4.42
2022-12-08T17:20:48.579Z,4.40
2022-12-08T17:26:36.281Z,4.29
2022-12-08T17:29:38.135Z,4.35
2022-12-08T17:32:24.166Z,4.32
2022-12-08T17:34:56.711Z,4.35
2022-12-08T17:37:33.676Z,4.33
2022-12-08T17:40:10.093Z,4.29
2022-12-08T17:42:47.702Z,4.29
2022-12-08T17:48:38.985Z,4.23
2022-12-08T17:52:22.332Z,4.26
2022-12-08T17:54:29.720Z,4.20
2022-12-08T17:57:03.989Z,4.32
2022-12-08T17:59:31.314Z,4.26
2022-12-08T18:02:00.326Z,4.30
2022-12-08T18:04:33.717Z,4.40
2022-12-08T18:07:05.019Z,4.32
2022-12-08T18:09:45.556Z,4.26
2022-12-08T18:12:23.270Z,4.35
2022-12-08T18:17:38.691Z,4.22
2022-12-08T18:20:09.517Z,4.13
2022-12-08T18:22:36.588Z,4.02
2022-12-08T18:25:04.666Z,4.03
2022-12-08T18:27:42.990Z,4.05
2022-12-08T18:30:21.908Z,4.09
2022-12-08T18:32:57.578Z,3.95
2022-12-08T18:35:24.442Z,3.92
2022-12-08T18:40:46.509Z,3.94
2022-12-08T18:43:27.293Z,3.95
2022-12-08T18:46:07.705Z,3.99
2022-12-08T18:48:45.729Z,4.01
2022-12-08T18:51:14.483Z,3.96
2022-12-08T18:53:47.892Z,3.88
2022-12-08T18:58:41.258Z,3.88
2022-12-08T19:06:45.380Z,3.96
2022-12-08T19:11:53.353Z,3.98
2022-12-08T19:14:28.779Z,3.88
2022-12-08T19:16:56.413Z,3.89
2022-12-08T19:19:23.112Z,3.84
2022-12-08T19:21:50.106Z,3.98
2022-12-08T19:24:17.113Z,3.96
2022-12-08T19:26:44.195Z,3.77
2022-12-08T19:29:14.499Z,3.87
2022-12-08T19:31:41.716Z,3.77
2022-12-08T19:34:09.692Z,3.71
2022-12-08T19:36:42.594Z,3.81
2022-12-08T19:40:05.919Z,3.73
2022-12-08T19:42:51.164Z,3.75
2022-12-08T19:45:25.815Z,3.70
2022-12-08T19:47:52.524Z,3.64
2022-12-08T19:50:37.718Z,3.64
2022-12-08T19:53:11.938Z,3.58
2022-12-08T19:55:39.678Z,3.56
2022-12-08T19:58:07.543Z,3.54
2022-12-08T20:00:35.008Z,3.58
2022-12-08T20:03:03.084Z,3.54
2022-12-08T20:05:31.364Z,3.53
2022-12-08T20:08:04.327Z,3.54
2022-12-08T20:10:36.916Z,3.47
2022-12-08T20:13:23.103Z,3.44
2022-12-08T20:15:50.388Z,3.56
2022-12-08T20:18:20.637Z,3.48
2022-12-08T20:20:47.645Z,3.51
2022-12-08T20:23:15.439Z,3.50
2022-12-08T20:25:44.817Z,3.48
2022-12-08T20:28:11.753Z,3.56
2022-12-08T20:30:39.357Z,3.56
2022-12-08T20:33:06.548Z,3.43
2022-12-08T20:35:34.614Z,3.47
2022-12-08T20:38:07.407Z,3.51
2022-12-08T20:40:34.038Z,3.60
2022-12-08T20:43:00.895Z,3.60
2022-12-08T20:45:27.595Z,3.50
2022-12-08T20:47:54.444Z,3.50
2022-12-08T20:50:37.039Z,3.58
2022-12-08T20:53:03.953Z,3.66
2022-12-08T20:55:30.666Z,3.66
2022-12-08T20:57:57.413Z,3.58
2022-12-08T21:00:26.137Z,3.58
2022-12-08T21:02:56.956Z,3.58
2022-12-08T21:05:26.457Z,3.66
2022-12-08T21:07:55.028Z,3.47
2022-12-08T21:10:24.020Z,3.56
2022-12-08T21:13:02.506Z,3.57
2022-12-08T21:15:29.161Z,3.54
2022-12-08T21:17:59.366Z,3.60
2022-12-08T21:20:32.692Z,3.57
2022-12-08T21:23:02.380Z,3.61
2022-12-08T21:25:29.203Z,3.58
2022-12-08T21:27:58.996Z,3.66
2022-12-08T21:30:25.762Z,3.71
2022-12-08T21:32:52.691Z,3.66
2022-12-08T21:35:30.700Z,3.71
2022-12-08T21:38:00.330Z,3.66
2022-12-08T21:40:27.403Z,3.70
2022-12-08T21:42:54.225Z,3.73
2022-12-08T21:45:27.075Z,3.67
2022-12-08T21:47:59.595Z,3.68
2022-12-08T21:50:28.530Z,3.58
2022-12-08T21:52:59.796Z,3.60
2022-12-08T21:55:26.921Z,3.58
2022-12-08T21:58:03.440Z,3.57
2022-12-08T22:00:38.569Z,3.68
2022-12-08T22:06:01.005Z,3.58
2022-12-08T22:08:28.277Z,3.71
2022-12-08T22:10:55.232Z,3.67
2022-12-08T22:13:24.915Z,3.68
2022-12-08T22:16:02.106Z,3.77
2022-12-08T22:18:29.324Z,3.78
2022-12-08T22:20:56.569Z,3.75
2022-12-08T22:23:26.873Z,3.77
2022-12-08T22:26:02.111Z,3.74
2022-12-08T22:28:45.397Z,3.58
2022-12-08T22:31:15.421Z,3.57
2022-12-08T22:33:51.338Z,3.64
2022-12-08T22:36:25.842Z,3.53
2022-12-08T22:38:54.100Z,3.50
2022-12-08T22:41:22.156Z,3.44
2022-12-08T22:43:49.693Z,3.37
2022-12-08T22:49:08.842Z,3.63
2022-12-08T22:51:40.442Z,3.50
2022-12-08T22:54:37.987Z,3.53
2022-12-08T22:57:26.993Z,3.41
2022-12-08T22:59:53.610Z,3.43
2022-12-08T23:02:21.718Z,3.47
2022-12-08T23:04:48.835Z,3.36
2022-12-08T23:07:16.791Z,3.40
2022-12-08T23:09:44.663Z,3.34
2022-12-08T23:12:11.724Z,3.38
2022-12-08T23:14:48.904Z,3.41
2022-12-08T23:17:15.977Z,3.53
2022-12-08T23:19:46.611Z,3.50
2022-12-08T23:22:13.947Z,3.44
2022-12-08T23:24:40.858Z,3.40
2022-12-08T23:27:08.259Z,3.26
2022-12-08T23:29:35.642Z,3.23
2022-12-08T23:32:02.518Z,3.17
2022-12-08T23:34:29.668Z,3.20
2022-12-08T23:37:08.318Z,3.19
2022-12-08T23:39:35.571Z,3.09
2022-12-08T23:42:05.765Z,3.07
2022-12-08T23:44:35.815Z,3.00
2022-12-08T23:49:52.020Z,2.89
2022-12-08T23:52:18.836Z,2.81
2022-12-08T23:54:45.723Z,2.82
2022-12-08T23:57:12.822Z,2.81
2022-12-08T23:59:39.707Z,2.82
